sensor_id;sensor_type;location;lat;lon;timestamp;P1;durP1;ratioP1;P2;durP2;ratioP2
11960;SDS011;6040;49.358;11.140;2023-07-24T00:00:50;6.33;;;4.80;;
11960;SDS011;6040;49.358;11.140;2023-07-24T00:03:17;6.37;;;4.40;;
11960;SDS011;6040;49.358;11.140;2023-07-24T00:05:44;9.27;;;5.50;;
11960;SDS011;6040;49.358;11.140;2023-07-24T00:08:12;8.87;;;4.97;;
11960;SDS011;6040;49.358;11.140;2023-07-24T00:10:39;6.23;;;4.93;;
11960;SDS011;6040;49.358;11.140;2023-07-24T00:13:06;5.90;;;4.83;;
11960;SDS011;6040;49.358;11.140;2023-07-24T00:15:32;7.67;;;5.23;;
11960;SDS011;6040;49.358;11.140;2023-07-24T00:17:59;7.97;;;5.20;;
11960;SDS011;6040;49.358;11.140;2023-07-24T00:20:26;8.87;;;4.90;;
11960;SDS011;6040;49.358;11.140;2023-07-24T00:22:53;9.07;;;5.90;;
11960;SDS011;6040;49.358;11.140;2023-07-24T00:25:21;9.90;;;5.80;;
11960;SDS011;6040;49.358;11.140;2023-07-24T00:27:48;8.63;;;5.00;;
11960;SDS011;6040;49.358;11.140;2023-07-24T00:30:14;11.17;;;5.23;;
11960;SDS011;6040;49.358;11.140;2023-07-24T00:32:41;9.27;;;5.97;;
11960;SDS011;6040;49.358;11.140;2023-07-24T00:35:08;10.33;;;6.20;;
11960;SDS011;6040;49.358;11.140;2023-07-24T00:37:35;10.67;;;6.20;;
11960;SDS011;6040;49.358;11.140;2023-07-24T00:40:02;9.03;;;6.07;;
11960;SDS011;6040;49.358;11.140;2023-07-24T00:42:30;9.27;;;6.20;;
11960;SDS011;6040;49.358;11.140;2023-07-24T00:44:57;9.03;;;5.50;;
11960;SDS011;6040;49.358;11.140;2023-07-24T00:47:24;9.37;;;6.00;;
11960;SDS011;6040;49.358;11.140;2023-07-24T00:49:53;8.33;;;6.30;;
11960;SDS011;6040;49.358;11.140;2023-07-24T00:52:20;9.27;;;6.27;;
11960;SDS011;6040;49.358;11.140;2023-07-24T00:54:47;8.23;;;6.33;;
11960;SDS011;6040;49.358;11.140;2023-07-24T00:57:15;8.47;;;5.83;;
11960;SDS011;6040;49.358;11.140;2023-07-24T00:59:43;9.07;;;6.10;;
11960;SDS011;6040;49.358;11.140;2023-07-24T01:02:11;9.53;;;6.60;;
11960;SDS011;6040;49.358;11.140;2023-07-24T01:04:38;9.17;;;5.87;;
11960;SDS011;6040;49.358;11.140;2023-07-24T01:07:05;9.73;;;5.90;;
11960;SDS011;6040;49.358;11.140;2023-07-24T01:09:32;10.20;;;7.17;;
11960;SDS011;6040;49.358;11.140;2023-07-24T01:12:01;9.23;;;6.60;;
11960;SDS011;6040;49.358;11.140;2023-07-24T01:14:35;12.97;;;6.40;;
11960;SDS011;6040;49.358;11.140;2023-07-24T01:17:10;10.67;;;6.37;;
11960;SDS011;6040;49.358;11.140;2023-07-24T01:19:42;9.10;;;6.07;;
11960;SDS011;6040;49.358;11.140;2023-07-24T01:22:14;9.47;;;6.47;;
11960;SDS011;6040;49.358;11.140;2023-07-24T01:25:09;8.43;;;5.93;;
11960;SDS011;6040;49.358;11.140;2023-07-24T01:27:43;11.30;;;6.90;;
11960;SDS011;6040;49.358;11.140;2023-07-24T01:30:10;11.37;;;6.57;;
11960;SDS011;6040;49.358;11.140;2023-07-24T01:32:38;11.63;;;7.00;;
11960;SDS011;6040;49.358;11.140;2023-07-24T01:35:05;8.13;;;5.97;;
11960;SDS011;6040;49.358;11.140;2023-07-24T01:37:33;9.37;;;6.73;;
11960;SDS011;6040;49.358;11.140;2023-07-24T01:40:00;13.03;;;7.30;;
11960;SDS011;6040;49.358;11.140;2023-07-24T01:42:28;11.90;;;6.63;;
11960;SDS011;6040;49.358;11.140;2023-07-24T01:44:56;10.37;;;6.77;;
11960;SDS011;6040;49.358;11.140;2023-07-24T01:47:23;8.90;;;6.77;;
11960;SDS011;6040;49.358;11.140;2023-07-24T01:49:50;10.43;;;6.87;;
11960;SDS011;6040;49.358;11.140;2023-07-24T01:52:17;9.47;;;6.63;;
11960;SDS011;6040;49.358;11.140;2023-07-24T01:54:44;9.63;;;6.80;;
11960;SDS011;6040;49.358;11.140;2023-07-24T01:57:11;9.90;;;6.63;;
11960;SDS011;6040;49.358;11.140;2023-07-24T01:59:38;10.00;;;6.83;;
11960;SDS011;6040;49.358;11.140;2023-07-24T02:02:06;12.83;;;7.10;;
11960;SDS011;6040;49.358;11.140;2023-07-24T02:04:32;11.33;;;7.23;;
11960;SDS011;6040;49.358;11.140;2023-07-24T02:06:59;10.97;;;7.17;;
11960;SDS011;6040;49.358;11.140;2023-07-24T02:09:26;10.63;;;7.13;;
11960;SDS011;6040;49.358;11.140;2023-07-24T02:11:53;10.17;;;7.33;;
11960;SDS011;6040;49.358;11.140;2023-07-24T02:14:20;10.73;;;7.13;;
11960;SDS011;6040;49.358;11.140;2023-07-24T02:16:46;9.33;;;6.73;;
11960;SDS011;6040;49.358;11.140;2023-07-24T02:19:14;10.70;;;6.87;;
11960;SDS011;6040;49.358;11.140;2023-07-24T02:21:41;11.37;;;7.73;;
11960;SDS011;6040;49.358;11.140;2023-07-24T02:24:08;9.63;;;6.87;;
11960;SDS011;6040;49.358;11.140;2023-07-24T02:26:35;11.00;;;7.10;;
11960;SDS011;6040;49.358;11.140;2023-07-24T02:29:02;10.10;;;6.70;;
11960;SDS011;6040;49.358;11.140;2023-07-24T02:31:28;11.67;;;7.40;;
11960;SDS011;6040;49.358;11.140;2023-07-24T02:33:55;10.60;;;7.20;;
11960;SDS011;6040;49.358;11.140;2023-07-24T02:36:23;9.73;;;6.93;;
11960;SDS011;6040;49.358;11.140;2023-07-24T02:38:50;8.83;;;6.57;;
11960;SDS011;6040;49.358;11.140;2023-07-24T02:41:17;8.73;;;7.27;;
11960;SDS011;6040;49.358;11.140;2023-07-24T02:43:44;10.67;;;7.47;;
11960;SDS011;6040;49.358;11.140;2023-07-24T02:46:11;11.03;;;7.27;;
11960;SDS011;6040;49.358;11.140;2023-07-24T02:48:38;9.20;;;6.83;;
11960;SDS011;6040;49.358;11.140;2023-07-24T02:51:04;8.80;;;7.07;;
11960;SDS011;6040;49.358;11.140;2023-07-24T02:53:33;10.00;;;7.20;;
11960;SDS011;6040;49.358;11.140;2023-07-24T02:56:00;11.23;;;7.03;;
11960;SDS011;6040;49.358;11.140;2023-07-24T02:58:27;9.23;;;7.37;;
11960;SDS011;6040;49.358;11.140;2023-07-24T03:00:54;8.57;;;7.10;;
11960;SDS011;6040;49.358;11.140;2023-07-24T03:03:28;10.83;;;7.10;;
11960;SDS011;6040;49.358;11.140;2023-07-24T03:05:55;9.80;;;7.10;;
11960;SDS011;6040;49.358;11.140;2023-07-24T03:08:22;10.20;;;7.67;;
11960;SDS011;6040;49.358;11.140;2023-07-24T03:10:50;10.60;;;7.10;;
11960;SDS011;6040;49.358;11.140;2023-07-24T03:13:18;10.67;;;7.13;;
11960;SDS011;6040;49.358;11.140;2023-07-24T03:15:51;13.70;;;7.53;;
11960;SDS011;6040;49.358;11.140;2023-07-24T03:18:18;9.93;;;7.47;;
11960;SDS011;6040;49.358;11.140;2023-07-24T03:20:45;11.20;;;7.73;;
11960;SDS011;6040;49.358;11.140;2023-07-24T03:23:12;9.47;;;8.00;;
11960;SDS011;6040;49.358;11.140;2023-07-24T03:25:39;11.07;;;7.87;;
11960;SDS011;6040;49.358;11.140;2023-07-24T03:28:07;11.07;;;7.57;;
11960;SDS011;6040;49.358;11.140;2023-07-24T03:30:34;10.20;;;8.07;;
11960;SDS011;6040;49.358;11.140;2023-07-24T03:33:01;9.43;;;7.30;;
11960;SDS011;6040;49.358;11.140;2023-07-24T03:35:28;12.00;;;7.63;;
11960;SDS011;6040;49.358;11.140;2023-07-24T03:37:55;11.23;;;7.50;;
11960;SDS011;6040;49.358;11.140;2023-07-24T03:40:22;11.47;;;7.73;;
11960;SDS011;6040;49.358;11.140;2023-07-24T03:42:48;12.10;;;8.00;;
11960;SDS011;6040;49.358;11.140;2023-07-24T03:45:16;11.90;;;8.60;;
11960;SDS011;6040;49.358;11.140;2023-07-24T03:47:43;10.27;;;8.00;;
11960;SDS011;6040;49.358;11.140;2023-07-24T03:50:10;10.97;;;7.73;;
11960;SDS011;6040;49.358;11.140;2023-07-24T03:52:37;10.53;;;7.63;;
11960;SDS011;6040;49.358;11.140;2023-07-24T03:55:04;10.47;;;7.63;;
11960;SDS011;6040;49.358;11.140;2023-07-24T03:57:32;10.93;;;7.53;;
11960;SDS011;6040;49.358;11.140;2023-07-24T04:00:00;12.53;;;7.57;;
11960;SDS011;6040;49.358;11.140;2023-07-24T04:02:28;10.00;;;7.73;;
11960;SDS011;6040;49.358;11.140;2023-07-24T04:04:55;14.20;;;8.37;;
11960;SDS011;6040;49.358;11.140;2023-07-24T04:07:22;8.97;;;7.30;;
11960;SDS011;6040;49.358;11.140;2023-07-24T04:09:48;10.73;;;6.70;;
11960;SDS011;6040;49.358;11.140;2023-07-24T04:12:15;10.20;;;7.20;;
11960;SDS011;6040;49.358;11.140;2023-07-24T04:14:42;11.83;;;7.83;;
11960;SDS011;6040;49.358;11.140;2023-07-24T04:17:09;11.40;;;8.23;;
11960;SDS011;6040;49.358;11.140;2023-07-24T04:19:37;12.50;;;7.67;;
11960;SDS011;6040;49.358;11.140;2023-07-24T04:22:04;9.40;;;7.33;;
11960;SDS011;6040;49.358;11.140;2023-07-24T04:24:30;11.93;;;7.97;;
11960;SDS011;6040;49.358;11.140;2023-07-24T04:26:57;9.93;;;7.90;;
11960;SDS011;6040;49.358;11.140;2023-07-24T04:29:24;9.33;;;7.07;;
11960;SDS011;6040;49.358;11.140;2023-07-24T04:31:51;10.10;;;7.80;;
11960;SDS011;6040;49.358;11.140;2023-07-24T04:34:18;10.43;;;7.80;;
11960;SDS011;6040;49.358;11.140;2023-07-24T04:36:46;12.03;;;7.07;;
11960;SDS011;6040;49.358;11.140;2023-07-24T04:39:13;10.03;;;7.63;;
11960;SDS011;6040;49.358;11.140;2023-07-24T04:41:40;11.63;;;7.83;;
11960;SDS011;6040;49.358;11.140;2023-07-24T04:44:07;11.40;;;8.07;;
11960;SDS011;6040;49.358;11.140;2023-07-24T04:46:33;9.93;;;7.60;;
11960;SDS011;6040;49.358;11.140;2023-07-24T04:49:00;12.50;;;8.03;;
11960;SDS011;6040;49.358;11.140;2023-07-24T04:51:27;11.40;;;7.40;;
11960;SDS011;6040;49.358;11.140;2023-07-24T04:53:55;10.27;;;7.70;;
11960;SDS011;6040;49.358;11.140;2023-07-24T04:56:22;11.63;;;7.77;;
11960;SDS011;6040;49.358;11.140;2023-07-24T04:58:49;11.73;;;7.83;;
11960;SDS011;6040;49.358;11.140;2023-07-24T05:01:15;11.83;;;8.30;;
11960;SDS011;6040;49.358;11.140;2023-07-24T05:03:42;9.10;;;7.03;;
11960;SDS011;6040;49.358;11.140;2023-07-24T05:06:09;16.47;;;7.33;;
11960;SDS011;6040;49.358;11.140;2023-07-24T05:08:36;9.40;;;7.30;;
11960;SDS011;6040;49.358;11.140;2023-07-24T05:11:04;9.23;;;6.87;;
11960;SDS011;6040;49.358;11.140;2023-07-24T05:13:31;9.83;;;7.37;;
11960;SDS011;6040;49.358;11.140;2023-07-24T05:15:57;10.17;;;7.67;;
11960;SDS011;6040;49.358;11.140;2023-07-24T05:18:24;10.83;;;7.50;;
11960;SDS011;6040;49.358;11.140;2023-07-24T05:20:51;10.70;;;7.10;;
11960;SDS011;6040;49.358;11.140;2023-07-24T05:23:18;9.67;;;7.07;;
11960;SDS011;6040;49.358;11.140;2023-07-24T05:25:45;9.03;;;7.20;;
11960;SDS011;6040;49.358;11.140;2023-07-24T05:28:13;8.70;;;6.50;;
11960;SDS011;6040;49.358;11.140;2023-07-24T05:30:40;10.83;;;6.93;;
11960;SDS011;6040;49.358;11.140;2023-07-24T05:33:06;9.33;;;7.80;;
11960;SDS011;6040;49.358;11.140;2023-07-24T05:35:33;11.60;;;7.83;;
11960;SDS011;6040;49.358;11.140;2023-07-24T05:38:00;10.27;;;6.53;;
11960;SDS011;6040;49.358;11.140;2023-07-24T05:40:27;8.53;;;6.50;;
11960;SDS011;6040;49.358;11.140;2023-07-24T05:42:54;9.97;;;6.83;;
11960;SDS011;6040;49.358;11.140;2023-07-24T05:45:24;10.07;;;7.53;;
11960;SDS011;6040;49.358;11.140;2023-07-24T05:47:51;9.70;;;7.37;;
11960;SDS011;6040;49.358;11.140;2023-07-24T05:50:17;11.97;;;7.07;;
11960;SDS011;6040;49.358;11.140;2023-07-24T05:52:44;9.13;;;7.20;;
11960;SDS011;6040;49.358;11.140;2023-07-24T05:55:11;9.10;;;6.60;;
11960;SDS011;6040;49.358;11.140;2023-07-24T05:57:38;10.77;;;6.80;;
11960;SDS011;6040;49.358;11.140;2023-07-24T06:00:05;8.63;;;6.73;;
11960;SDS011;6040;49.358;11.140;2023-07-24T06:02:35;10.20;;;7.10;;
11960;SDS011;6040;49.358;11.140;2023-07-24T06:05:01;9.50;;;7.20;;
11960;SDS011;6040;49.358;11.140;2023-07-24T06:07:28;10.83;;;7.53;;
11960;SDS011;6040;49.358;11.140;2023-07-24T06:09:55;9.97;;;7.13;;
11960;SDS011;6040;49.358;11.140;2023-07-24T06:12:22;10.37;;;7.30;;
11960;SDS011;6040;49.358;11.140;2023-07-24T06:14:49;10.43;;;6.63;;
11960;SDS011;6040;49.358;11.140;2023-07-24T06:17:15;10.73;;;6.87;;
11960;SDS011;6040;49.358;11.140;2023-07-24T06:19:44;10.97;;;7.20;;
11960;SDS011;6040;49.358;11.140;2023-07-24T06:22:11;10.67;;;7.07;;
11960;SDS011;6040;49.358;11.140;2023-07-24T06:24:38;10.87;;;7.43;;
11960;SDS011;6040;49.358;11.140;2023-07-24T06:27:04;10.47;;;7.43;;
11960;SDS011;6040;49.358;11.140;2023-07-24T06:29:32;10.43;;;6.87;;
11960;SDS011;6040;49.358;11.140;2023-07-24T06:31:59;11.20;;;7.10;;
11960;SDS011;6040;49.358;11.140;2023-07-24T06:34:26;9.93;;;7.07;;
11960;SDS011;6040;49.358;11.140;2023-07-24T06:36:54;9.17;;;6.90;;
11960;SDS011;6040;49.358;11.140;2023-07-24T06:39:21;12.23;;;7.80;;
11960;SDS011;6040;49.358;11.140;2023-07-24T06:41:48;10.33;;;7.13;;
11960;SDS011;6040;49.358;11.140;2023-07-24T06:44:14;9.63;;;7.07;;
11960;SDS011;6040;49.358;11.140;2023-07-24T06:46:41;9.23;;;7.10;;
11960;SDS011;6040;49.358;11.140;2023-07-24T06:49:08;9.10;;;6.87;;
11960;SDS011;6040;49.358;11.140;2023-07-24T06:51:36;10.00;;;6.90;;
11960;SDS011;6040;49.358;11.140;2023-07-24T06:54:05;10.90;;;7.87;;
11960;SDS011;6040;49.358;11.140;2023-07-24T06:56:32;9.33;;;6.70;;
11960;SDS011;6040;49.358;11.140;2023-07-24T06:58:58;10.43;;;7.70;;
11960;SDS011;6040;49.358;11.140;2023-07-24T07:01:25;9.77;;;7.03;;
11960;SDS011;6040;49.358;11.140;2023-07-24T07:03:52;8.37;;;6.93;;
11960;SDS011;6040;49.358;11.140;2023-07-24T07:06:19;11.80;;;7.63;;
11960;SDS011;6040;49.358;11.140;2023-07-24T07:08:46;11.60;;;7.87;;
11960;SDS011;6040;49.358;11.140;2023-07-24T07:11:14;8.73;;;7.10;;
11960;SDS011;6040;49.358;11.140;2023-07-24T07:13:41;10.03;;;7.70;;
11960;SDS011;6040;49.358;11.140;2023-07-24T07:16:08;10.03;;;7.53;;
11960;SDS011;6040;49.358;11.140;2023-07-24T07:18:34;11.07;;;7.47;;
11960;SDS011;6040;49.358;11.140;2023-07-24T07:21:01;10.10;;;7.47;;
11960;SDS011;6040;49.358;11.140;2023-07-24T07:23:29;11.23;;;7.20;;
11960;SDS011;6040;49.358;11.140;2023-07-24T07:25:55;8.97;;;7.30;;
11960;SDS011;6040;49.358;11.140;2023-07-24T07:28:24;11.47;;;7.80;;
11960;SDS011;6040;49.358;11.140;2023-07-24T07:30:50;9.40;;;7.30;;
11960;SDS011;6040;49.358;11.140;2023-07-24T07:33:17;10.30;;;7.47;;
11960;SDS011;6040;49.358;11.140;2023-07-24T07:35:46;12.00;;;7.83;;
11960;SDS011;6040;49.358;11.140;2023-07-24T07:38:14;12.20;;;8.07;;
11960;SDS011;6040;49.358;11.140;2023-07-24T07:40:40;10.67;;;7.30;;
11960;SDS011;6040;49.358;11.140;2023-07-24T07:43:07;10.20;;;7.77;;
11960;SDS011;6040;49.358;11.140;2023-07-24T07:45:35;10.43;;;7.50;;
11960;SDS011;6040;49.358;11.140;2023-07-24T07:48:02;8.73;;;6.60;;
11960;SDS011;6040;49.358;11.140;2023-07-24T07:50:30;9.50;;;6.90;;
11960;SDS011;6040;49.358;11.140;2023-07-24T07:52:57;8.33;;;6.90;;
11960;SDS011;6040;49.358;11.140;2023-07-24T07:55:24;10.00;;;7.60;;
11960;SDS011;6040;49.358;11.140;2023-07-24T07:57:50;10.30;;;7.43;;
11960;SDS011;6040;49.358;11.140;2023-07-24T08:00:17;12.33;;;7.63;;
11960;SDS011;6040;49.358;11.140;2023-07-24T08:02:45;9.40;;;7.67;;
11960;SDS011;6040;49.358;11.140;2023-07-24T08:05:12;12.93;;;7.73;;
11960;SDS011;6040;49.358;11.140;2023-07-24T08:07:40;11.07;;;7.73;;
11960;SDS011;6040;49.358;11.140;2023-07-24T08:10:07;10.77;;;7.87;;
11960;SDS011;6040;49.358;11.140;2023-07-24T08:12:34;11.27;;;8.00;;
11960;SDS011;6040;49.358;11.140;2023-07-24T08:15:01;11.20;;;8.10;;
11960;SDS011;6040;49.358;11.140;2023-07-24T08:17:28;12.43;;;8.40;;
11960;SDS011;6040;49.358;11.140;2023-07-24T08:19:57;12.23;;;8.13;;
11960;SDS011;6040;49.358;11.140;2023-07-24T08:22:24;9.57;;;8.03;;
11960;SDS011;6040;49.358;11.140;2023-07-24T08:24:51;10.20;;;8.07;;
11960;SDS011;6040;49.358;11.140;2023-07-24T08:27:18;13.50;;;8.30;;
11960;SDS011;6040;49.358;11.140;2023-07-24T08:29:44;11.63;;;8.03;;
11960;SDS011;6040;49.358;11.140;2023-07-24T08:32:11;13.47;;;9.37;;
11960;SDS011;6040;49.358;11.140;2023-07-24T08:34:38;12.17;;;8.43;;
11960;SDS011;6040;49.358;11.140;2023-07-24T08:37:07;12.70;;;9.07;;
11960;SDS011;6040;49.358;11.140;2023-07-24T08:39:33;11.53;;;8.67;;
11960;SDS011;6040;49.358;11.140;2023-07-24T08:42:07;10.70;;;7.67;;
11960;SDS011;6040;49.358;11.140;2023-07-24T08:44:35;11.03;;;8.20;;
11960;SDS011;6040;49.358;11.140;2023-07-24T08:47:03;11.27;;;8.00;;
11960;SDS011;6040;49.358;11.140;2023-07-24T08:49:31;9.83;;;7.60;;
11960;SDS011;6040;49.358;11.140;2023-07-24T08:51:59;9.70;;;8.40;;
11960;SDS011;6040;49.358;11.140;2023-07-24T08:54:28;9.70;;;7.63;;
11960;SDS011;6040;49.358;11.140;2023-07-24T08:56:56;12.87;;;8.83;;
11960;SDS011;6040;49.358;11.140;2023-07-24T08:59:23;11.50;;;8.13;;
11960;SDS011;6040;49.358;11.140;2023-07-24T09:01:50;10.27;;;8.13;;
11960;SDS011;6040;49.358;11.140;2023-07-24T09:04:17;11.60;;;8.07;;
11960;SDS011;6040;49.358;11.140;2023-07-24T09:06:44;11.90;;;8.30;;
11960;SDS011;6040;49.358;11.140;2023-07-24T09:09:12;11.13;;;8.20;;
11960;SDS011;6040;49.358;11.140;2023-07-24T09:11:46;10.87;;;8.07;;
11960;SDS011;6040;49.358;11.140;2023-07-24T09:14:21;12.53;;;8.77;;
11960;SDS011;6040;49.358;11.140;2023-07-24T09:16:49;10.67;;;8.43;;
11960;SDS011;6040;49.358;11.140;2023-07-24T09:19:18;11.10;;;7.77;;
11960;SDS011;6040;49.358;11.140;2023-07-24T09:21:45;11.20;;;8.10;;
11960;SDS011;6040;49.358;11.140;2023-07-24T09:24:12;12.57;;;8.47;;
11960;SDS011;6040;49.358;11.140;2023-07-24T09:26:48;11.13;;;8.23;;
11960;SDS011;6040;49.358;11.140;2023-07-24T09:29:16;11.40;;;7.70;;
11960;SDS011;6040;49.358;11.140;2023-07-24T09:31:43;11.40;;;7.37;;
11960;SDS011;6040;49.358;11.140;2023-07-24T09:34:14;12.57;;;8.37;;
11960;SDS011;6040;49.358;11.140;2023-07-24T09:36:42;12.57;;;8.13;;
11960;SDS011;6040;49.358;11.140;2023-07-24T09:39:09;10.97;;;7.80;;
11960;SDS011;6040;49.358;11.140;2023-07-24T09:41:37;10.67;;;8.10;;
11960;SDS011;6040;49.358;11.140;2023-07-24T09:44:05;11.80;;;8.00;;
11960;SDS011;6040;49.358;11.140;2023-07-24T09:46:32;11.47;;;7.20;;
11960;SDS011;6040;49.358;11.140;2023-07-24T09:48:59;12.53;;;8.27;;
11960;SDS011;6040;49.358;11.140;2023-07-24T09:51:27;11.57;;;7.73;;
11960;SDS011;6040;49.358;11.140;2023-07-24T09:53:58;13.63;;;7.43;;
11960;SDS011;6040;49.358;11.140;2023-07-24T09:56:30;10.67;;;7.93;;
11960;SDS011;6040;49.358;11.140;2023-07-24T09:58:58;10.30;;;8.13;;
11960;SDS011;6040;49.358;11.140;2023-07-24T10:01:29;13.60;;;7.93;;
11960;SDS011;6040;49.358;11.140;2023-07-24T10:03:57;9.50;;;7.77;;
11960;SDS011;6040;49.358;11.140;2023-07-24T10:06:26;10.43;;;7.38;;
11960;SDS011;6040;49.358;11.140;2023-07-24T10:08:54;12.50;;;8.57;;
11960;SDS011;6040;49.358;11.140;2023-07-24T10:11:21;10.00;;;7.50;;
11960;SDS011;6040;49.358;11.140;2023-07-24T10:13:49;13.50;;;8.32;;
11960;SDS011;6040;49.358;11.140;2023-07-24T10:16:17;11.23;;;8.00;;
11960;SDS011;6040;49.358;11.140;2023-07-24T10:18:46;11.63;;;8.18;;
11960;SDS011;6040;49.358;11.140;2023-07-24T10:21:13;10.60;;;7.45;;
11960;SDS011;6040;49.358;11.140;2023-07-24T10:23:41;11.00;;;7.85;;
11960;SDS011;6040;49.358;11.140;2023-07-24T10:26:09;12.70;;;7.45;;
11960;SDS011;6040;49.358;11.140;2023-07-24T10:28:37;9.48;;;7.40;;
11960;SDS011;6040;49.358;11.140;2023-07-24T10:31:06;11.40;;;8.27;;
11960;SDS011;6040;49.358;11.140;2023-07-24T10:33:35;10.52;;;7.90;;
11960;SDS011;6040;49.358;11.140;2023-07-24T10:36:11;12.60;;;7.85;;
11960;SDS011;6040;49.358;11.140;2023-07-24T10:38:40;9.00;;;7.75;;
11960;SDS011;6040;49.358;11.140;2023-07-24T10:41:08;9.98;;;7.65;;
11960;SDS011;6040;49.358;11.140;2023-07-24T10:43:43;11.32;;;7.57;;
11960;SDS011;6040;49.358;11.140;2023-07-24T10:46:11;9.40;;;7.60;;
11960;SDS011;6040;49.358;11.140;2023-07-24T10:48:43;9.20;;;7.35;;
11960;SDS011;6040;49.358;11.140;2023-07-24T10:51:13;12.00;;;7.93;;
11960;SDS011;6040;49.358;11.140;2023-07-24T10:53:41;11.32;;;7.90;;
11960;SDS011;6040;49.358;11.140;2023-07-24T10:56:10;9.13;;;7.43;;
11960;SDS011;6040;49.358;11.140;2023-07-24T10:58:37;11.23;;;7.70;;
11960;SDS011;6040;49.358;11.140;2023-07-24T11:01:04;9.98;;;7.65;;
11960;SDS011;6040;49.358;11.140;2023-07-24T11:03:31;10.33;;;7.57;;
11960;SDS011;6040;49.358;11.140;2023-07-24T11:05:59;12.27;;;7.80;;
11960;SDS011;6040;49.358;11.140;2023-07-24T11:08:27;12.32;;;7.68;;
11960;SDS011;6040;49.358;11.140;2023-07-24T11:10:54;10.38;;;7.57;;
11960;SDS011;6040;49.358;11.140;2023-07-24T11:13:23;9.48;;;7.22;;
11960;SDS011;6040;49.358;11.140;2023-07-24T11:15:51;9.60;;;7.27;;
11960;SDS011;6040;49.358;11.140;2023-07-24T11:18:19;9.20;;;7.67;;
11960;SDS011;6040;49.358;11.140;2023-07-24T11:20:47;11.27;;;7.43;;
11960;SDS011;6040;49.358;11.140;2023-07-24T11:23:16;12.93;;;8.33;;
11960;SDS011;6040;49.358;11.140;2023-07-24T11:25:45;12.17;;;7.53;;
11960;SDS011;6040;49.358;11.140;2023-07-24T11:28:13;11.25;;;7.35;;
11960;SDS011;6040;49.358;11.140;2023-07-24T11:30:41;9.00;;;6.80;;
11960;SDS011;6040;49.358;11.140;2023-07-24T11:33:09;11.07;;;7.65;;
11960;SDS011;6040;49.358;11.140;2023-07-24T11:35:37;9.43;;;7.17;;
11960;SDS011;6040;49.358;11.140;2023-07-24T11:38:05;10.73;;;7.10;;
11960;SDS011;6040;49.358;11.140;2023-07-24T11:40:35;9.47;;;6.93;;
11960;SDS011;6040;49.358;11.140;2023-07-24T11:43:04;8.33;;;6.50;;
11960;SDS011;6040;49.358;11.140;2023-07-24T11:45:39;8.73;;;6.73;;
11960;SDS011;6040;49.358;11.140;2023-07-24T11:48:09;8.37;;;6.23;;
11960;SDS011;6040;49.358;11.140;2023-07-24T11:50:41;7.67;;;6.40;;
11960;SDS011;6040;49.358;11.140;2023-07-24T11:53:18;8.03;;;6.10;;
11960;SDS011;6040;49.358;11.140;2023-07-24T11:55:46;8.73;;;6.27;;
11960;SDS011;6040;49.358;11.140;2023-07-24T11:58:15;7.30;;;6.10;;
11960;SDS011;6040;49.358;11.140;2023-07-24T12:00:43;9.00;;;6.10;;
11960;SDS011;6040;49.358;11.140;2023-07-24T12:03:09;7.60;;;6.33;;
11960;SDS011;6040;49.358;11.140;2023-07-24T12:05:39;8.67;;;6.00;;
11960;SDS011;6040;49.358;11.140;2023-07-24T12:08:07;9.40;;;6.23;;
11960;SDS011;6040;49.358;11.140;2023-07-24T12:10:35;8.50;;;5.60;;
11960;SDS011;6040;49.358;11.140;2023-07-24T12:13:03;6.93;;;6.00;;
11960;SDS011;6040;49.358;11.140;2023-07-24T12:15:31;8.23;;;6.40;;
11960;SDS011;6040;49.358;11.140;2023-07-24T12:17:59;9.73;;;6.97;;
11960;SDS011;6040;49.358;11.140;2023-07-24T12:20:26;10.90;;;7.83;;
11960;SDS011;6040;49.358;11.140;2023-07-24T12:22:53;10.87;;;6.80;;
11960;SDS011;6040;49.358;11.140;2023-07-24T12:25:20;9.03;;;6.27;;
11960;SDS011;6040;49.358;11.140;2023-07-24T12:27:47;11.00;;;6.23;;
11960;SDS011;6040;49.358;11.140;2023-07-24T12:30:14;8.73;;;6.03;;
11960;SDS011;6040;49.358;11.140;2023-07-24T12:32:42;7.57;;;6.03;;
11960;SDS011;6040;49.358;11.140;2023-07-24T12:35:09;7.80;;;6.20;;
11960;SDS011;6040;49.358;11.140;2023-07-24T12:37:37;7.67;;;6.03;;
11960;SDS011;6040;49.358;11.140;2023-07-24T12:43:39;8.93;;;5.90;;
11960;SDS011;6040;49.358;11.140;2023-07-24T12:46:06;7.23;;;6.03;;
11960;SDS011;6040;49.358;11.140;2023-07-24T12:48:34;8.93;;;5.87;;
11960;SDS011;6040;49.358;11.140;2023-07-24T12:51:01;6.47;;;5.60;;
11960;SDS011;6040;49.358;11.140;2023-07-24T12:53:28;7.83;;;5.90;;
11960;SDS011;6040;49.358;11.140;2023-07-24T12:55:54;8.47;;;5.40;;
11960;SDS011;6040;49.358;11.140;2023-07-24T12:58:21;8.03;;;6.23;;
11960;SDS011;6040;49.358;11.140;2023-07-24T13:00:48;7.33;;;5.33;;
11960;SDS011;6040;49.358;11.140;2023-07-24T13:03:15;7.03;;;5.80;;
11960;SDS011;6040;49.358;11.140;2023-07-24T13:05:43;8.63;;;5.63;;
11960;SDS011;6040;49.358;11.140;2023-07-24T13:08:10;6.30;;;5.17;;
11960;SDS011;6040;49.358;11.140;2023-07-24T13:10:37;7.60;;;5.83;;
11960;SDS011;6040;49.358;11.140;2023-07-24T13:13:04;6.17;;;5.57;;
11960;SDS011;6040;49.358;11.140;2023-07-24T13:15:31;7.47;;;5.30;;
11960;SDS011;6040;49.358;11.140;2023-07-24T13:17:57;8.10;;;5.80;;
11960;SDS011;6040;49.358;11.140;2023-07-24T13:20:24;10.23;;;5.63;;
11960;SDS011;6040;49.358;11.140;2023-07-24T13:22:52;9.97;;;6.10;;
11960;SDS011;6040;49.358;11.140;2023-07-24T13:25:19;7.63;;;5.80;;
11960;SDS011;6040;49.358;11.140;2023-07-24T13:27:46;7.43;;;5.57;;
11960;SDS011;6040;49.358;11.140;2023-07-24T13:30:13;9.00;;;5.67;;
11960;SDS011;6040;49.358;11.140;2023-07-24T13:32:40;6.90;;;5.37;;
11960;SDS011;6040;49.358;11.140;2023-07-24T13:35:07;7.67;;;5.40;;
11960;SDS011;6040;49.358;11.140;2023-07-24T13:37:34;7.27;;;5.60;;
11960;SDS011;6040;49.358;11.140;2023-07-24T13:40:02;7.00;;;5.07;;
11960;SDS011;6040;49.358;11.140;2023-07-24T13:42:30;6.87;;;5.53;;
11960;SDS011;6040;49.358;11.140;2023-07-24T13:44:57;7.47;;;5.87;;
11960;SDS011;6040;49.358;11.140;2023-07-24T13:47:23;6.90;;;4.90;;
11960;SDS011;6040;49.358;11.140;2023-07-24T13:49:50;7.57;;;5.67;;
11960;SDS011;6040;49.358;11.140;2023-07-24T13:52:17;7.00;;;5.70;;
11960;SDS011;6040;49.358;11.140;2023-07-24T13:54:44;7.20;;;5.17;;
11960;SDS011;6040;49.358;11.140;2023-07-24T13:57:13;5.93;;;5.20;;
11960;SDS011;6040;49.358;11.140;2023-07-24T13:59:40;8.70;;;5.30;;
11960;SDS011;6040;49.358;11.140;2023-07-24T14:02:07;7.73;;;5.00;;
11960;SDS011;6040;49.358;11.140;2023-07-24T14:04:33;7.73;;;5.17;;
11960;SDS011;6040;49.358;11.140;2023-07-24T14:07:00;6.50;;;5.13;;
11960;SDS011;6040;49.358;11.140;2023-07-24T14:09:27;6.57;;;5.07;;
11960;SDS011;6040;49.358;11.140;2023-07-24T14:11:55;6.97;;;4.80;;
11960;SDS011;6040;49.358;11.140;2023-07-24T14:14:24;6.30;;;4.97;;
11960;SDS011;6040;49.358;11.140;2023-07-24T14:16:51;6.40;;;5.03;;
11960;SDS011;6040;49.358;11.140;2023-07-24T14:19:18;9.70;;;4.50;;
11960;SDS011;6040;49.358;11.140;2023-07-24T14:21:45;6.40;;;5.00;;
11960;SDS011;6040;49.358;11.140;2023-07-24T14:24:11;5.10;;;4.33;;
11960;SDS011;6040;49.358;11.140;2023-07-24T14:26:39;5.97;;;4.97;;
11960;SDS011;6040;49.358;11.140;2023-07-24T14:29:05;7.80;;;4.80;;
11960;SDS011;6040;49.358;11.140;2023-07-24T14:31:33;4.97;;;4.47;;
11960;SDS011;6040;49.358;11.140;2023-07-24T14:34:00;5.60;;;4.67;;
11960;SDS011;6040;49.358;11.140;2023-07-24T14:36:28;5.07;;;4.30;;
11960;SDS011;6040;49.358;11.140;2023-07-24T14:38:58;5.93;;;4.20;;
11960;SDS011;6040;49.358;11.140;2023-07-24T14:41:25;6.07;;;4.83;;
11960;SDS011;6040;49.358;11.140;2023-07-24T14:43:52;7.47;;;4.63;;
11960;SDS011;6040;49.358;11.140;2023-07-24T14:46:19;5.80;;;4.50;;